sensor_id;sensor_type;location;lat;lon;timestamp;pressure;altitude;pressure_sealevel;temperature;humidity
21944;BME280;11136;48.778;9.126;2023-12-07T00:00:08;97543.84;;;2.47;69.71
21944;BME280;11136;48.778;9.126;2023-12-07T00:02:34;97563.31;;;2.45;69.70
21944;BME280;11136;48.778;9.126;2023-12-07T00:04:59;97714.25;;;3.58;69.54
21944;BME280;11136;48.778;9.126;2023-12-07T00:07:24;97359.28;;;1.38;69.12
21944;BME280;11136;48.778;9.126;2023-12-07T00:09:49;97586.50;;;2.59;69.06
21944;BME280;11136;48.778;9.126;2023-12-07T00:12:15;97601.34;;;2.70;69.22
21944;BME280;11136;48.778;9.126;2023-12-07T00:14:40;97772.53;;;3.84;70.22
21944;BME280;11136;48.778;9.126;2023-12-07T00:17:05;97570.16;;;2.69;69.35
21944;BME280;11136;48.778;9.126;2023-12-07T00:19:30;97791.66;;;3.94;69.24
21944;BME280;11136;48.778;9.126;2023-12-07T00:21:56;97642.44;;;3.06;69.17
21944;BME280;11136;48.778;9.126;2023-12-07T00:24:21;97516.94;;;2.18;69.47
21944;BME280;11136;48.778;9.126;2023-12-07T00:26:46;97595.84;;;2.57;68.93
21944;BME280;11136;48.778;9.126;2023-12-07T00:29:12;97779.88;;;3.93;69.09
21944;BME280;11136;48.778;9.126;2023-12-07T00:31:37;97786.59;;;3.94;69.29
21944;BME280;11136;48.778;9.126;2023-12-07T00:34:02;97533.84;;;2.44;69.16
21944;BME280;11136;48.778;9.126;2023-12-07T00:36:28;97693.41;;;3.23;68.72
21944;BME280;11136;48.778;9.126;2023-12-07T00:38:53;97579.84;;;2.57;68.71
21944;BME280;11136;48.778;9.126;2023-12-07T00:41:18;97502.88;;;2.09;69.04
21944;BME280;11136;48.778;9.126;2023-12-07T00:43:43;97641.44;;;2.84;68.77
21944;BME280;11136;48.778;9.126;2023-12-07T00:46:09;97779.69;;;3.73;68.95
21944;BME280;11136;48.778;9.126;2023-12-07T00:48:35;97800.94;;;3.95;69.23
21944;BME280;11136;48.778;9.126;2023-12-07T00:51:00;97598.00;;;2.69;69.25
21944;BME280;11136;48.778;9.126;2023-12-07T00:53:26;97737.72;;;3.64;68.54
21944;BME280;11136;48.778;9.126;2023-12-07T00:55:51;97776.44;;;3.94;69.05
21944;BME280;11136;48.778;9.126;2023-12-07T00:58:16;97752.38;;;3.55;68.91
21944;BME280;11136;48.778;9.126;2023-12-07T01:00:41;97521.25;;;2.14;68.69
21944;BME280;11136;48.778;9.126;2023-12-07T01:03:07;97633.97;;;3.07;68.47
21944;BME280;11136;48.778;9.126;2023-12-07T01:05:32;97381.03;;;1.42;68.55
21944;BME280;11136;48.778;9.126;2023-12-07T01:07:57;97795.59;;;4.03;68.57
21944;BME280;11136;48.778;9.126;2023-12-07T01:10:22;97661.00;;;3.06;68.44
21944;BME280;11136;48.778;9.126;2023-12-07T01:12:47;97569.31;;;2.42;68.59
21944;BME280;11136;48.778;9.126;2023-12-07T01:15:13;97711.25;;;3.47;68.50
21944;BME280;11136;48.778;9.126;2023-12-07T01:17:38;97644.91;;;3.07;68.56
21944;BME280;11136;48.778;9.126;2023-12-07T01:20:05;97512.06;;;2.12;68.43
21944;BME280;11136;48.778;9.126;2023-12-07T01:22:36;97582.97;;;2.37;68.37
21944;BME280;11136;48.778;9.126;2023-12-07T01:25:02;97811.59;;;4.05;68.90
21944;BME280;11136;48.778;9.126;2023-12-07T01:27:27;97502.78;;;2.12;68.89
21944;BME280;11136;48.778;9.126;2023-12-07T01:29:53;97615.56;;;2.75;68.76
21944;BME280;11136;48.778;9.126;2023-12-07T01:32:18;97557.16;;;2.26;68.94
21944;BME280;11136;48.778;9.126;2023-12-07T01:34:43;97445.72;;;1.76;68.88
21944;BME280;11136;48.778;9.126;2023-12-07T01:37:09;97593.22;;;2.60;68.75
21944;BME280;11136;48.778;9.126;2023-12-07T01:39:34;97711.56;;;3.10;68.73
21944;BME280;11136;48.778;9.126;2023-12-07T01:41:59;97818.53;;;4.00;68.46
21944;BME280;11136;48.778;9.126;2023-12-07T01:44:25;97784.94;;;3.41;68.90
21944;BME280;11136;48.778;9.126;2023-12-07T01:46:53;97633.28;;;2.75;68.63
21944;BME280;11136;48.778;9.126;2023-12-07T01:49:18;97756.66;;;3.53;68.36
21944;BME280;11136;48.778;9.126;2023-12-07T01:51:44;97824.75;;;3.91;68.82
21944;BME280;11136;48.778;9.126;2023-12-07T01:54:09;97618.63;;;2.57;68.39
21944;BME280;11136;48.778;9.126;2023-12-07T01:56:34;97409.69;;;1.41;68.58
21944;BME280;11136;48.778;9.126;2023-12-07T01:59:00;97819.56;;;3.94;68.50
21944;BME280;11136;48.778;9.126;2023-12-07T02:01:25;97570.97;;;2.15;67.89
21944;BME280;11136;48.778;9.126;2023-12-07T02:03:50;97572.84;;;2.37;68.55
21944;BME280;11136;48.778;9.126;2023-12-07T02:06:15;97617.75;;;2.58;68.74
21944;BME280;11136;48.778;9.126;2023-12-07T02:08:44;97712.19;;;3.16;68.24
21944;BME280;11136;48.778;9.126;2023-12-07T02:11:10;97712.63;;;3.02;68.35
21944;BME280;11136;48.778;9.126;2023-12-07T02:13:37;97768.44;;;3.54;68.46
21944;BME280;11136;48.778;9.126;2023-12-07T02:16:15;97407.97;;;1.14;68.45
21944;BME280;11136;48.778;9.126;2023-12-07T02:19:01;97792.78;;;3.59;68.17
21944;BME280;11136;48.778;9.126;2023-12-07T02:21:34;97722.25;;;3.19;68.28
21944;BME280;11136;48.778;9.126;2023-12-07T02:24:03;97222.47;;;0.09;68.25
21944;BME280;11136;48.778;9.126;2023-12-07T02:26:34;97725.66;;;3.18;68.79
21944;BME280;11136;48.778;9.126;2023-12-07T02:28:59;97769.63;;;3.44;68.20
21944;BME280;11136;48.778;9.126;2023-12-07T02:31:25;97407.41;;;1.03;68.56
21944;BME280;11136;48.778;9.126;2023-12-07T02:33:50;97703.28;;;2.76;68.60
21944;BME280;11136;48.778;9.126;2023-12-07T02:36:19;97850.97;;;3.64;68.77
21944;BME280;11136;48.778;9.126;2023-12-07T02:38:46;97723.25;;;2.86;68.85
21944;BME280;11136;48.778;9.126;2023-12-07T02:41:12;97702.94;;;2.59;68.91
21944;BME280;11136;48.778;9.126;2023-12-07T02:43:38;97634.97;;;2.18;68.68
21944;BME280;11136;48.778;9.126;2023-12-07T02:46:04;97694.06;;;2.74;68.94
21944;BME280;11136;48.778;9.126;2023-12-07T02:48:29;97824.31;;;3.51;68.89
21944;BME280;11136;48.778;9.126;2023-12-07T02:50:55;97818.31;;;3.53;68.46
21944;BME280;11136;48.778;9.126;2023-12-07T02:53:20;97609.53;;;2.22;68.78
21944;BME280;11136;48.778;9.126;2023-12-07T02:55:46;97815.84;;;3.52;69.32
21944;BME280;11136;48.778;9.126;2023-12-07T02:58:11;97627.28;;;2.21;68.96
21944;BME280;11136;48.778;9.126;2023-12-07T03:00:36;97562.72;;;1.79;68.61
21944;BME280;11136;48.778;9.126;2023-12-07T03:03:01;97828.31;;;3.58;68.48
21944;BME280;11136;48.778;9.126;2023-12-07T03:05:27;97822.38;;;3.59;68.73
21944;BME280;11136;48.778;9.126;2023-12-07T03:07:52;97581.22;;;1.80;68.61
21944;BME280;11136;48.778;9.126;2023-12-07T03:10:17;97738.63;;;2.80;68.61
21944;BME280;11136;48.778;9.126;2023-12-07T03:12:42;97577.22;;;2.02;68.66
21944;BME280;11136;48.778;9.126;2023-12-07T03:15:08;97682.34;;;2.42;68.60
21944;BME280;11136;48.778;9.126;2023-12-07T03:17:35;97818.03;;;3.34;69.19
21944;BME280;11136;48.778;9.126;2023-12-07T03:20:00;97664.03;;;2.62;68.82
21944;BME280;11136;48.778;9.126;2023-12-07T03:22:26;97838.34;;;3.62;69.30
21944;BME280;11136;48.778;9.126;2023-12-07T03:24:52;97675.44;;;2.47;68.72
21944;BME280;11136;48.778;9.126;2023-12-07T03:27:17;97554.97;;;1.54;69.26
21944;BME280;11136;48.778;9.126;2023-12-07T03:29:43;97863.94;;;3.53;69.51
21944;BME280;11136;48.778;9.126;2023-12-07T03:32:08;97625.81;;;2.13;68.57
21944;BME280;11136;48.778;9.126;2023-12-07T03:34:33;97589.03;;;1.72;68.96
21944;BME280;11136;48.778;9.126;2023-12-07T03:36:59;97831.25;;;3.46;68.67
21944;BME280;11136;48.778;9.126;2023-12-07T03:39:24;97678.75;;;2.20;68.77
21944;BME280;11136;48.778;9.126;2023-12-07T03:41:51;97841.69;;;3.35;69.07
21944;BME280;11136;48.778;9.126;2023-12-07T03:44:16;97708.78;;;2.32;68.99
21944;BME280;11136;48.778;9.126;2023-12-07T03:46:42;97648.59;;;1.81;68.89
21944;BME280;11136;48.778;9.126;2023-12-07T03:49:07;97713.97;;;2.27;69.30
21944;BME280;11136;48.778;9.126;2023-12-07T03:51:32;97848.00;;;3.22;69.68
21944;BME280;11136;48.778;9.126;2023-12-07T03:53:58;97673.41;;;1.99;69.22
21944;BME280;11136;48.778;9.126;2023-12-07T03:56:28;97643.22;;;1.93;69.12
21944;BME280;11136;48.778;9.126;2023-12-07T03:58:54;97837.19;;;3.15;69.77
21944;BME280;11136;48.778;9.126;2023-12-07T04:01:27;97852.22;;;3.21;69.15
21944;BME280;11136;48.778;9.126;2023-12-07T04:03:54;97807.69;;;2.85;69.64
21944;BME280;11136;48.778;9.126;2023-12-07T04:06:20;97781.38;;;2.59;69.42
21944;BME280;11136;48.778;9.126;2023-12-07T04:08:46;97660.13;;;1.91;69.64
21944;BME280;11136;48.778;9.126;2023-12-07T04:11:12;97864.28;;;3.13;69.64
21944;BME280;11136;48.778;9.126;2023-12-07T04:13:38;97602.28;;;1.49;69.06
21944;BME280;11136;48.778;9.126;2023-12-07T04:16:03;97704.91;;;1.88;69.07
21944;BME280;11136;48.778;9.126;2023-12-07T04:18:29;97644.09;;;1.61;68.80
21944;BME280;11136;48.778;9.126;2023-12-07T04:20:54;97436.34;;;0.24;69.20
21944;BME280;11136;48.778;9.126;2023-12-07T04:23:19;97627.63;;;1.12;69.06
21944;BME280;11136;48.778;9.126;2023-12-07T04:25:45;97732.84;;;1.83;69.44
21944;BME280;11136;48.778;9.126;2023-12-07T04:28:10;97765.00;;;2.10;69.94
21944;BME280;11136;48.778;9.126;2023-12-07T04:30:35;97634.72;;;1.32;69.53
21944;BME280;11136;48.778;9.126;2023-12-07T04:33:03;97872.91;;;2.76;69.27
21944;BME280;11136;48.778;9.126;2023-12-07T04:35:30;97756.69;;;2.05;69.34
21944;BME280;11136;48.778;9.126;2023-12-07T04:37:56;97868.63;;;2.79;69.75
21944;BME280;11136;48.778;9.126;2023-12-07T04:40:21;97636.41;;;1.32;69.37
21944;BME280;11136;48.778;9.126;2023-12-07T04:42:47;97869.72;;;2.68;69.86
21944;BME280;11136;48.778;9.126;2023-12-07T04:45:12;97604.88;;;1.14;68.82
21944;BME280;11136;48.778;9.126;2023-12-07T04:47:37;97720.47;;;1.71;69.33
21944;BME280;11136;48.778;9.126;2023-12-07T04:50:03;97616.75;;;1.09;69.37
21944;BME280;11136;48.778;9.126;2023-12-07T04:52:28;97609.28;;;1.06;69.19
21944;BME280;11136;48.778;9.126;2023-12-07T04:54:53;97654.09;;;1.32;69.57
21944;BME280;11136;48.778;9.126;2023-12-07T04:57:19;97868.84;;;2.69;69.55
21944;BME280;11136;48.778;9.126;2023-12-07T04:59:44;97696.84;;;1.39;69.23
21944;BME280;11136;48.778;9.126;2023-12-07T05:02:16;97835.47;;;2.23;69.41
21944;BME280;11136;48.778;9.126;2023-12-07T05:04:42;97692.72;;;1.37;69.53
21944;BME280;11136;48.778;9.126;2023-12-07T05:07:07;97869.00;;;2.63;69.50
21944;BME280;11136;48.778;9.126;2023-12-07T05:09:33;97808.16;;;2.03;69.46
21944;BME280;11136;48.778;9.126;2023-12-07T05:12:00;97870.94;;;2.55;70.03
21944;BME280;11136;48.778;9.126;2023-12-07T05:14:33;97870.31;;;2.45;69.69
21944;BME280;11136;48.778;9.126;2023-12-07T05:17:00;97857.78;;;2.41;69.75
21944;BME280;11136;48.778;9.126;2023-12-07T05:19:25;97657.31;;;1.03;69.52
21944;BME280;11136;48.778;9.126;2023-12-07T05:21:51;97753.78;;;1.52;69.45
21944;BME280;11136;48.778;9.126;2023-12-07T05:24:17;97886.31;;;2.46;69.48
21944;BME280;11136;48.778;9.126;2023-12-07T05:26:43;97706.31;;;1.30;69.40
21944;BME280;11136;48.778;9.126;2023-12-07T05:29:11;97648.34;;;0.89;69.32
21944;BME280;11136;48.778;9.126;2023-12-07T05:31:36;97835.13;;;2.04;69.83
21944;BME280;11136;48.778;9.126;2023-12-07T05:34:02;97885.00;;;2.33;69.37
21944;BME280;11136;48.778;9.126;2023-12-07T05:36:27;97660.94;;;0.93;69.40
21944;BME280;11136;48.778;9.126;2023-12-07T05:38:52;97888.31;;;2.35;69.36
21944;BME280;11136;48.778;9.126;2023-12-07T05:41:17;97402.28;;;-0.66;69.21
21944;BME280;11136;48.778;9.126;2023-12-07T05:43:43;97893.38;;;2.35;69.34
21944;BME280;11136;48.778;9.126;2023-12-07T05:46:09;97814.59;;;1.82;69.40
21944;BME280;11136;48.778;9.126;2023-12-07T05:48:34;97640.28;;;0.75;69.50
21944;BME280;11136;48.778;9.126;2023-12-07T05:51:01;97716.16;;;1.05;69.60
21944;BME280;11136;48.778;9.126;2023-12-07T05:53:26;97678.34;;;1.03;69.09
21944;BME280;11136;48.778;9.126;2023-12-07T05:55:52;97741.00;;;1.23;69.65
21944;BME280;11136;48.778;9.126;2023-12-07T05:58:17;97718.50;;;1.12;69.55
21944;BME280;11136;48.778;9.126;2023-12-07T06:00:45;97652.78;;;0.80;69.78
21944;BME280;11136;48.778;9.126;2023-12-07T06:03:12;97754.84;;;1.44;70.09
21944;BME280;11136;48.778;9.126;2023-12-07T06:05:38;97768.44;;;1.38;69.86
21944;BME280;11136;48.778;9.126;2023-12-07T06:08:03;97678.56;;;0.94;69.77
21944;BME280;11136;48.778;9.126;2023-12-07T06:10:29;97801.84;;;1.49;70.25
21944;BME280;11136;48.778;9.126;2023-12-07T06:12:55;97641.25;;;0.70;69.83
21944;BME280;11136;48.778;9.126;2023-12-07T06:15:21;97883.78;;;2.13;70.30
21944;BME280;11136;48.778;9.126;2023-12-07T06:17:47;97670.63;;;0.72;69.89
21944;BME280;11136;48.778;9.126;2023-12-07T06:20:12;97752.63;;;1.30;69.88
21944;BME280;11136;48.778;9.126;2023-12-07T06:22:37;97737.84;;;1.15;70.11
21944;BME280;11136;48.778;9.126;2023-12-07T06:25:03;97837.38;;;1.79;69.74
21944;BME280;11136;48.778;9.126;2023-12-07T06:27:29;97875.47;;;2.08;70.31
21944;BME280;11136;48.778;9.126;2023-12-07T06:29:55;97582.66;;;0.20;70.07
21944;BME280;11136;48.778;9.126;2023-12-07T06:32:20;97759.25;;;1.34;70.32
21944;BME280;11136;48.778;9.126;2023-12-07T06:34:45;97635.00;;;0.49;69.75
21944;BME280;11136;48.778;9.126;2023-12-07T06:37:11;97832.50;;;1.71;69.61
21944;BME280;11136;48.778;9.126;2023-12-07T06:39:37;97855.31;;;1.70;69.46
21944;BME280;11136;48.778;9.126;2023-12-07T06:42:02;97806.34;;;1.38;69.72
21944;BME280;11136;48.778;9.126;2023-12-07T06:44:27;97880.72;;;1.99;69.86
21944;BME280;11136;48.778;9.126;2023-12-07T06:46:53;97893.41;;;1.98;69.92
21944;BME280;11136;48.778;9.126;2023-12-07T06:49:18;97768.00;;;1.21;70.28
21944;BME280;11136;48.778;9.126;2023-12-07T06:51:44;97745.53;;;1.09;70.12
21944;BME280;11136;48.778;9.126;2023-12-07T06:54:09;97484.34;;;-0.59;69.49
21944;BME280;11136;48.778;9.126;2023-12-07T06:56:34;97882.69;;;1.88;70.04
21944;BME280;11136;48.778;9.126;2023-12-07T06:59:00;97868.25;;;1.54;69.98
21944;BME280;11136;48.778;9.126;2023-12-07T07:01:25;97676.31;;;0.42;70.08
21944;BME280;11136;48.778;9.126;2023-12-07T07:03:50;97696.00;;;0.65;69.67
21944;BME280;11136;48.778;9.126;2023-12-07T07:06:16;97641.56;;;0.16;69.70
21944;BME280;11136;48.778;9.126;2023-12-07T07:08:41;97617.09;;;-0.21;69.64
21944;BME280;11136;48.778;9.126;2023-12-07T07:11:13;97689.69;;;0.47;70.12
21944;BME280;11136;48.778;9.126;2023-12-07T07:13:41;97613.72;;;-0.20;70.23
21944;BME280;11136;48.778;9.126;2023-12-07T07:16:09;97750.50;;;0.73;70.04
21944;BME280;11136;48.778;9.126;2023-12-07T07:18:37;97693.66;;;0.57;70.01
21944;BME280;11136;48.778;9.126;2023-12-07T07:21:03;97797.31;;;0.86;70.19
21944;BME280;11136;48.778;9.126;2023-12-07T07:23:29;97297.25;;;-1.83;69.57
21944;BME280;11136;48.778;9.126;2023-12-07T07:25:54;97382.13;;;-1.51;69.95
21944;BME280;11136;48.778;9.126;2023-12-07T07:28:19;97648.97;;;0.23;70.19
21944;BME280;11136;48.778;9.126;2023-12-07T07:30:46;97615.50;;;0.15;69.77
21944;BME280;11136;48.778;9.126;2023-12-07T07:33:11;97936.09;;;1.73;70.61
21944;BME280;11136;48.778;9.126;2023-12-07T07:35:37;97237.66;;;-2.20;69.85
21944;BME280;11136;48.778;9.126;2023-12-07T07:38:05;97687.41;;;0.35;70.02
21944;BME280;11136;48.778;9.126;2023-12-07T07:40:30;97671.38;;;0.37;70.53
21944;BME280;11136;48.778;9.126;2023-12-07T07:42:55;97789.88;;;0.80;70.35
21944;BME280;11136;48.778;9.126;2023-12-07T07:45:20;97343.91;;;-1.68;69.93
21944;BME280;11136;48.778;9.126;2023-12-07T07:47:46;97758.25;;;0.64;70.24
21944;BME280;11136;48.778;9.126;2023-12-07T07:50:11;97623.31;;;0.05;70.21
21944;BME280;11136;48.778;9.126;2023-12-07T07:52:39;97408.41;;;-1.23;70.04
21944;BME280;11136;48.778;9.126;2023-12-07T07:55:05;97838.94;;;1.09;70.27
21944;BME280;11136;48.778;9.126;2023-12-07T07:57:31;97948.66;;;1.76;70.77
21944;BME280;11136;48.778;9.126;2023-12-07T07:59:58;96978.91;;;-4.49;70.12
21944;BME280;11136;48.778;9.126;2023-12-07T08:02:24;97863.50;;;1.42;70.62
21944;BME280;11136;48.778;9.126;2023-12-07T08:04:49;97722.88;;;0.67;70.35
21944;BME280;11136;48.778;9.126;2023-12-07T08:07:16;97893.91;;;1.76;70.48
21944;BME280;11136;48.778;9.126;2023-12-07T08:09:42;97333.16;;;-2.26;70.46
21944;BME280;11136;48.778;9.126;2023-12-07T08:12:07;97899.84;;;1.74;70.31
21944;BME280;11136;48.778;9.126;2023-12-07T08:14:35;97551.88;;;-0.36;70.41
21944;BME280;11136;48.778;9.126;2023-12-07T08:17:00;97962.16;;;1.75;70.33
21944;BME280;11136;48.778;9.126;2023-12-07T08:19:26;97655.31;;;-0.01;70.69
21944;BME280;11136;48.778;9.126;2023-12-07T08:21:51;97819.47;;;1.15;70.27
21944;BME280;11136;48.778;9.126;2023-12-07T08:24:16;97740.72;;;0.58;70.57
21944;BME280;11136;48.778;9.126;2023-12-07T08:26:42;97383.72;;;-1.47;70.50
21944;BME280;11136;48.778;9.126;2023-12-07T08:29:07;97651.00;;;0.06;71.04
21944;BME280;11136;48.778;9.126;2023-12-07T08:31:32;97781.47;;;1.20;70.43
21944;BME280;11136;48.778;9.126;2023-12-07T08:33:58;97448.63;;;-0.76;70.31
21944;BME280;11136;48.778;9.126;2023-12-07T08:36:23;97535.66;;;-0.21;70.56
21944;BME280;11136;48.778;9.126;2023-12-07T08:38:48;97900.75;;;2.08;70.47
21944;BME280;11136;48.778;9.126;2023-12-07T08:41:14;97805.69;;;1.29;70.55
21944;BME280;11136;48.778;9.126;2023-12-07T08:43:39;97892.81;;;1.88;70.76
21944;BME280;11136;48.778;9.126;2023-12-07T08:46:04;97600.25;;;0.21;70.55
21944;BME280;11136;48.778;9.126;2023-12-07T08:48:32;97663.78;;;0.77;70.90
21944;BME280;11136;48.778;9.126;2023-12-07T08:50:57;97810.09;;;1.93;70.35
21944;BME280;11136;48.778;9.126;2023-12-07T08:53:23;97622.72;;;1.06;70.56
21944;BME280;11136;48.778;9.126;2023-12-07T08:55:48;97762.28;;;2.17;69.75
21944;BME280;11136;48.778;9.126;2023-12-07T08:58:13;97628.94;;;1.92;69.26
21944;BME280;11136;48.778;9.126;2023-12-07T09:00:38;97384.28;;;0.87;68.80
21944;BME280;11136;48.778;9.126;2023-12-07T09:03:04;97504.81;;;2.00;68.26
21944;BME280;11136;48.778;9.126;2023-12-07T09:05:29;97628.28;;;3.00;67.92
21944;BME280;11136;48.778;9.126;2023-12-07T09:07:55;97801.00;;;4.19;68.06
21944;BME280;11136;48.778;9.126;2023-12-07T09:10:21;97770.75;;;4.13;67.63
21944;BME280;11136;48.778;9.126;2023-12-07T09:12:46;97754.34;;;4.23;67.29
21944;BME280;11136;48.778;9.126;2023-12-07T09:15:12;97572.41;;;3.55;66.54
21944;BME280;11136;48.778;9.126;2023-12-07T09:17:38;97866.00;;;5.66;66.46
21944;BME280;11136;48.778;9.126;2023-12-07T09:20:05;97851.56;;;5.89;65.88
21944;BME280;11136;48.778;9.126;2023-12-07T09:22:31;97793.63;;;5.73;65.59
21944;BME280;11136;48.778;9.126;2023-12-07T09:24:57;97576.84;;;4.64;65.26
21944;BME280;11136;48.778;9.126;2023-12-07T09:27:22;97855.97;;;6.48;64.89
21944;BME280;11136;48.778;9.126;2023-12-07T09:29:48;97740.09;;;5.76;64.47
21944;BME280;11136;48.778;9.126;2023-12-07T09:32:13;97529.34;;;4.87;64.47
21944;BME280;11136;48.778;9.126;2023-12-07T09:34:39;97674.22;;;5.91;64.02
21944;BME280;11136;48.778;9.126;2023-12-07T09:37:08;97693.34;;;6.20;63.43
21944;BME280;11136;48.778;9.126;2023-12-07T09:39:34;97784.13;;;6.79;63.27
21944;BME280;11136;48.778;9.126;2023-12-07T09:42:00;97730.97;;;6.71;62.67
21944;BME280;11136;48.778;9.126;2023-12-07T09:44:26;97489.22;;;5.35;62.13
21944;BME280;11136;48.778;9.126;2023-12-07T09:46:52;97848.91;;;7.68;61.46
21944;BME280;11136;48.778;9.126;2023-12-07T09:49:17;97724.75;;;6.95;61.48
21944;BME280;11136;48.778;9.126;2023-12-07T09:51:44;97841.44;;;7.83;62.02
21944;BME280;11136;48.778;9.126;2023-12-07T09:54:11;97815.88;;;7.65;61.01
21944;BME280;11136;48.778;9.126;2023-12-07T09:56:36;97841.00;;;8.09;61.11
21944;BME280;11136;48.778;9.126;2023-12-07T09:59:01;97695.88;;;7.14;60.49
21944;BME280;11136;48.778;9.126;2023-12-07T10:01:30;97395.63;;;5.43;60.20
21944;BME280;11136;48.778;9.126;2023-12-07T10:04:34;97836.44;;;7.98;58.43
21944;BME280;11136;48.778;9.126;2023-12-07T10:07:01;97794.84;;;7.60;59.44
21944;BME280;11136;48.778;9.126;2023-12-07T10:09:27;97775.72;;;7.52;59.88
21944;BME280;11136;48.778;9.126;2023-12-07T10:12:02;97783.16;;;7.91;58.52
21944;BME280;11136;48.778;9.126;2023-12-07T10:14:28;97353.88;;;5.30;58.92
21944;BME280;11136;48.778;9.126;2023-12-07T10:16:54;97680.75;;;7.28;58.59
21944;BME280;11136;48.778;9.126;2023-12-07T10:19:21;97402.66;;;5.75;58.78
21944;BME280;11136;48.778;9.126;2023-12-07T10:21:51;97759.88;;;8.14;58.56
21944;BME280;11136;48.778;9.126;2023-12-07T10:24:21;97802.09;;;8.56;58.86
21944;BME280;11136;48.778;9.126;2023-12-07T10:26:48;97795.72;;;8.80;58.49
21944;BME280;11136;48.778;9.126;2023-12-07T10:29:14;97591.28;;;7.50;58.01
21944;BME280;11136;48.778;9.126;2023-12-07T10:31:39;97619.13;;;7.87;56.38
21944;BME280;11136;48.778;9.126;2023-12-07T10:34:05;97566.53;;;7.67;56.83
21944;BME280;11136;48.778;9.126;2023-12-07T10:36:31;97593.34;;;7.92;56.78
21944;BME280;11136;48.778;9.126;2023-12-07T10:38:58;97601.38;;;8.02;56.43
21944;BME280;11136;48.778;9.126;2023-12-07T10:41:24;97787.25;;;9.27;56.61
21944;BME280;11136;48.778;9.126;2023-12-07T10:44:04;97715.75;;;8.94;55.95
21944;BME280;11136;48.778;9.126;2023-12-07T10:46:32;97625.66;;;8.57;55.13
21944;BME280;11136;48.778;9.126;2023-12-07T10:49:08;97678.44;;;8.74;54.80
21944;BME280;11136;48.778;9.126;2023-12-07T10:51:41;97789.16;;;9.55;54.76
21944;BME280;11136;48.778;9.126;2023-12-07T10:54:07;97610.66;;;8.36;53.94
21944;BME280;11136;48.778;9.126;2023-12-07T10:56:44;97782.13;;;9.59;54.46
21944;BME280;11136;48.778;9.126;2023-12-07T10:59:13;97806.13;;;9.72;54.36
21944;BME280;11136;48.778;9.126;2023-12-07T11:01:41;97780.03;;;9.81;53.78
21944;BME280;11136;48.778;9.126;2023-12-07T11:04:13;97611.84;;;8.46;52.87
21944;BME280;11136;48.778;9.126;2023-12-07T11:06:39;97764.13;;;9.90;53.88
21944;BME280;11136;48.778;9.126;2023-12-07T11:09:11;97704.59;;;9.57;52.40
21944;BME280;11136;48.778;9.126;2023-12-07T11:11:52;97634.72;;;8.95;53.17
21944;BME280;11136;48.778;9.126;2023-12-07T11:14:20;97745.84;;;9.82;54.49
21944;BME280;11136;48.778;9.126;2023-12-07T11:16:47;97392.03;;;7.86;53.48
21944;BME280;11136;48.778;9.126;2023-12-07T11:22:07;97615.38;;;9.50;53.06
21944;BME280;11136;48.778;9.126;2023-12-07T11:24:33;97731.78;;;10.48;53.19
21944;BME280;11136;48.778;9.126;2023-12-07T11:27:00;97726.91;;;10.57;52.81
21944;BME280;11136;48.778;9.126;2023-12-07T11:29:34;97645.88;;;9.83;52.45
21944;BME280;11136;48.778;9.126;2023-12-07T11:32:04;97719.22;;;10.57;50.46
21944;BME280;11136;48.778;9.126;2023-12-07T11:34:41;97709.72;;;10.45;50.47
21944;BME280;11136;48.778;9.126;2023-12-07T11:37:09;97717.22;;;10.48;50.46
21944;BME280;11136;48.778;9.126;2023-12-07T11:39:45;97620.91;;;9.87;50.78
21944;BME280;11136;48.778;9.126;2023-12-07T11:42:19;97701.56;;;10.53;50.96
21944;BME280;11136;48.778;9.126;2023-12-07T11:44:51;97687.81;;;10.54;49.42
21944;BME280;11136;48.778;9.126;2023-12-07T11:47:20;97627.66;;;9.88;49.47
21944;BME280;11136;48.778;9.126;2023-12-07T11:49:51;97524.88;;;9.37;50.78
21944;BME280;11136;48.778;9.126;2023-12-07T11:52:24;97522.75;;;9.44;50.71
21944;BME280;11136;48.778;9.126;2023-12-07T11:54:51;97479.63;;;9.38;50.83
21944;BME280;11136;48.778;9.126;2023-12-07T11:57:19;97634.94;;;10.24;50.49
21944;BME280;11136;48.778;9.126;2023-12-07T11:59:46;97688.59;;;10.83;50.03
21944;BME280;11136;48.778;9.126;2023-12-07T12:02:14;97502.00;;;9.48;47.86
21944;BME280;11136;48.778;9.126;2023-12-07T12:04:42;97512.78;;;9.39;46.77
21944;BME280;11136;48.778;9.126;2023-12-07T12:07:08;97526.50;;;9.38;46.80
21944;BME280;11136;48.778;9.126;2023-12-07T12:09:39;97448.28;;;8.62;46.50
21944;BME280;11136;48.778;9.126;2023-12-07T12:12:06;97654.16;;;9.59;47.31
21944;BME280;11136;48.778;9.126;2023-12-07T12:14:34;97648.03;;;9.31;47.40
21944;BME280;11136;48.778;9.126;2023-12-07T12:17:00;97420.75;;;7.58;48.15
21944;BME280;11136;48.778;9.126;2023-12-07T12:19:29;97569.78;;;8.67;49.20
21944;BME280;11136;48.778;9.126;2023-12-07T12:21:56;97608.72;;;9.02;49.48
21944;BME280;11136;48.778;9.126;2023-12-07T12:24:24;97424.78;;;8.09;49.17
21944;BME280;11136;48.778;9.126;2023-12-07T12:26:58;97502.53;;;8.51;48.85
21944;BME280;11136;48.778;9.126;2023-12-07T12:29:50;97559.47;;;8.99;48.95
21944;BME280;11136;48.778;9.126;2023-12-07T12:32:16;97611.69;;;9.40;48.81
21944;BME280;11136;48.778;9.126;2023-12-07T12:34:43;97195.28;;;6.99;48.98
21944;BME280;11136;48.778;9.126;2023-12-07T12:37:09;97535.22;;;9.06;46.64
21944;BME280;11136;48.778;9.126;2023-12-07T12:39:44;97399.22;;;8.25;47.63
21944;BME280;11136;48.778;9.126;2023-12-07T12:42:10;97557.97;;;9.55;46.89
21944;BME280;11136;48.778;9.126;2023-12-07T12:44:43;97462.81;;;8.75;47.59
21944;BME280;11136;48.778;9.126;2023-12-07T12:47:08;97387.69;;;8.34;47.86
21944;BME280;11136;48.778;9.126;2023-12-07T12:49:37;97600.59;;;9.84;47.54
21944;BME280;11136;48.778;9.126;2023-12-07T12:52:05;97471.72;;;8.98;48.16
21944;BME280;11136;48.778;9.126;2023-12-07T12:54:37;97502.25;;;9.15;48.84
21944;BME280;11136;48.778;9.126;2023-12-07T12:57:13;97457.19;;;8.99;48.90
21944;BME280;11136;48.778;9.126;2023-12-07T12:59:41;97339.75;;;8.67;49.36
21944;BME280;11136;48.778;9.126;2023-12-07T13:02:09;97535.09;;;9.94;48.67
21944;BME280;11136;48.778;9.126;2023-12-07T13:04:35;97415.47;;;9.27;48.56
21944;BME280;11136;48.778;9.126;2023-12-07T13:07:01;97526.69;;;9.92;47.77
21944;BME280;11136;48.778;9.126;2023-12-07T13:09:26;97547.69;;;10.11;48.14